createdAt,value
2022-12-25T00:00:37.508Z,3.48
2022-12-25T00:03:43.178Z,3.54
2022-12-25T00:06:47.811Z,3.57
2022-12-25T00:09:53.249Z,3.67
2022-12-25T00:12:57.250Z,3.63
2022-12-25T00:16:14.242Z,3.63
2022-12-25T00:19:19.631Z,3.64
2022-12-25T00:22:23.244Z,3.64
2022-12-25T00:25:29.504Z,3.66
2022-12-25T00:28:37.211Z,3.65
2022-12-25T00:31:40.268Z,3.64
2022-12-25T00:34:46.163Z,3.70
2022-12-25T00:37:48.410Z,3.72
2022-12-25T00:40:50.983Z,3.77
2022-12-25T00:43:55.551Z,3.82
2022-12-25T00:47:00.649Z,3.79
2022-12-25T00:50:05.612Z,3.81
2022-12-25T00:53:14.628Z,3.79
2022-12-25T00:56:21.564Z,3.82
2022-12-25T00:59:28.804Z,3.85
2022-12-25T01:02:32.088Z,3.91
2022-12-25T01:05:36.375Z,3.86
2022-12-25T01:09:05.815Z,3.96
2022-12-25T01:12:11.183Z,3.96
2022-12-25T01:15:17.643Z,3.94
2022-12-25T01:18:23.741Z,3.92
2022-12-25T01:21:29.275Z,3.95
2022-12-25T01:24:32.556Z,3.98
2022-12-25T01:27:36.773Z,4.01
2022-12-25T01:30:40.707Z,4.04
2022-12-25T01:33:47.383Z,4.01
2022-12-25T01:36:53.969Z,4.09
2022-12-25T01:40:00.172Z,4.19
2022-12-25T01:43:04.339Z,4.21
2022-12-25T01:46:12.894Z,4.21
2022-12-25T01:49:27.015Z,4.22
2022-12-25T01:52:33.899Z,4.16
2022-12-25T01:55:42.819Z,4.12
2022-12-25T01:58:50.433Z,4.11
2022-12-25T02:01:54.544Z,4.16
2022-12-25T02:05:10.249Z,4.22
2022-12-25T02:08:20.181Z,4.17
2022-12-25T02:11:43.757Z,4.17
2022-12-25T02:14:52.530Z,4.13
2022-12-25T02:18:13.820Z,4.07
2022-12-25T02:21:20.086Z,3.98
2022-12-25T02:24:40.711Z,4.01
2022-12-25T02:28:07.317Z,4.00
2022-12-25T02:31:23.181Z,3.97
2022-12-25T02:34:39.305Z,3.96
2022-12-25T02:37:54.187Z,3.92
2022-12-25T02:41:03.110Z,3.96
2022-12-25T02:44:36.025Z,3.94
2022-12-25T02:47:58.750Z,3.98
2022-12-25T02:51:26.219Z,3.98
2022-12-25T02:55:07.523Z,3.96
2022-12-25T02:58:35.281Z,4.03
2022-12-25T03:02:17.256Z,4.02
2022-12-25T03:05:45.157Z,4.07
2022-12-25T03:08:55.949Z,4.08
2022-12-25T03:12:17.260Z,4.10
2022-12-25T03:15:41.025Z,4.06
2022-12-25T03:18:43.928Z,4.11
2022-12-25T03:22:06.279Z,4.12
2022-12-25T03:25:29.534Z,4.11
2022-12-25T03:28:33.661Z,4.09
2022-12-25T03:32:01.410Z,4.09
2022-12-25T03:35:28.264Z,4.12
2022-12-25T03:38:53.589Z,4.07
2022-12-25T03:42:21.244Z,4.04
2022-12-25T03:45:59.485Z,3.95
2022-12-25T03:49:34.939Z,3.93
2022-12-25T03:53:00.126Z,3.90
2022-12-25T03:56:25.041Z,3.91
2022-12-25T03:59:49.949Z,3.91
2022-12-25T04:03:13.273Z,3.84
2022-12-25T04:06:35.036Z,3.82
2022-12-25T04:09:57.110Z,3.78
2022-12-25T04:13:20.543Z,3.84
2022-12-25T04:16:43.404Z,3.84
2022-12-25T04:20:06.295Z,3.78
2022-12-25T04:23:28.516Z,3.83
2022-12-25T04:26:50.736Z,3.77
2022-12-25T04:30:13.491Z,3.79
2022-12-25T04:33:35.756Z,3.87
2022-12-25T04:36:39.680Z,3.88
2022-12-25T04:39:44.090Z,3.79
2022-12-25T04:42:46.762Z,3.80
2022-12-25T04:45:58.678Z,3.79
2022-12-25T04:49:05.322Z,3.75
2022-12-25T04:52:10.295Z,3.71
2022-12-25T04:55:13.670Z,3.73
2022-12-25T04:58:17.784Z,3.82
2022-12-25T05:01:22.214Z,3.80
2022-12-25T05:04:26.853Z,3.80
2022-12-25T05:07:33.308Z,3.81
2022-12-25T05:10:42.510Z,3.74
2022-12-25T05:13:47.009Z,3.72
2022-12-25T05:16:52.247Z,3.66
2022-12-25T05:19:57.496Z,3.55
2022-12-25T05:23:02.330Z,3.51
2022-12-25T05:26:09.694Z,3.46
2022-12-25T05:29:12.726Z,3.35
2022-12-25T05:32:20.802Z,3.25
2022-12-25T05:35:26.505Z,3.28
2022-12-25T05:38:31.632Z,3.26
2022-12-25T05:41:36.568Z,3.34
2022-12-25T05:44:40.236Z,3.39
2022-12-25T05:47:44.148Z,3.36
2022-12-25T05:50:47.753Z,3.32
2022-12-25T05:53:53.246Z,3.29
2022-12-25T05:56:58.237Z,3.15
2022-12-25T06:00:02.464Z,3.06
2022-12-25T06:03:07.362Z,3.02
2022-12-25T06:06:11.323Z,3.05
2022-12-25T06:09:15.620Z,3.01
2022-12-25T06:12:19.791Z,2.97
2022-12-25T06:15:23.489Z,2.96
2022-12-25T06:18:27.756Z,2.96
2022-12-25T06:21:30.587Z,2.90
2022-12-25T06:24:35.678Z,2.86
2022-12-25T06:27:42.875Z,2.78
2022-12-25T06:30:49.774Z,2.67
2022-12-25T06:33:54.903Z,2.58
2022-12-25T06:37:00.654Z,2.54
2022-12-25T06:40:04.757Z,2.77
2022-12-25T06:43:13.250Z,2.82
2022-12-25T06:46:17.700Z,2.75
2022-12-25T06:49:21.931Z,2.71
2022-12-25T06:52:27.756Z,2.67
2022-12-25T06:55:37.233Z,2.65
2022-12-25T06:58:51.174Z,2.78
2022-12-25T07:02:00.300Z,2.70
2022-12-25T07:05:10.292Z,2.76
2022-12-25T07:08:15.197Z,2.76
2022-12-25T07:11:18.409Z,2.73
2022-12-25T07:14:25.362Z,2.80
2022-12-25T07:17:35.153Z,2.90
2022-12-25T07:20:41.709Z,3.03
2022-12-25T07:23:49.915Z,3.09
2022-12-25T07:26:59.022Z,3.01
2022-12-25T07:30:06.460Z,2.97
2022-12-25T07:33:12.133Z,2.92
2022-12-25T07:36:17.753Z,2.94
2022-12-25T07:39:25.366Z,2.99
2022-12-25T07:42:33.061Z,3.06
2022-12-25T07:45:37.806Z,3.19
2022-12-25T07:48:46.623Z,3.42
2022-12-25T07:51:52.477Z,3.60
2022-12-25T07:54:55.763Z,3.64
2022-12-25T07:58:02.704Z,3.65
2022-12-25T08:01:18.878Z,3.63
2022-12-25T08:04:23.633Z,3.68
2022-12-25T08:07:28.205Z,3.88
2022-12-25T08:10:36.775Z,4.14
2022-12-25T08:13:40.938Z,4.32
2022-12-25T08:16:45.722Z,4.49
2022-12-25T08:19:48.730Z,4.64
2022-12-25T08:22:53.213Z,4.72
2022-12-25T08:26:05.511Z,4.75
2022-12-25T08:29:09.695Z,4.74
2022-12-25T08:32:12.909Z,4.70
2022-12-25T08:35:17.267Z,4.81
2022-12-25T08:38:20.854Z,4.79
2022-12-25T08:41:25.874Z,4.75
2022-12-25T08:44:29.801Z,4.79
2022-12-25T08:47:33.706Z,4.89
2022-12-25T08:50:41.415Z,4.99
2022-12-25T08:53:47.563Z,5.11
2022-12-25T08:56:50.753Z,5.19
2022-12-25T08:59:54.170Z,5.24
2022-12-25T09:02:58.716Z,5.30
2022-12-25T09:06:08.746Z,5.30
2022-12-25T09:09:13.380Z,5.33
2022-12-25T09:12:16.267Z,5.31
2022-12-25T09:15:20.162Z,5.38
2022-12-25T09:18:23.568Z,5.68
2022-12-25T09:21:28.017Z,6.00
2022-12-25T09:24:34.084Z,6.23
2022-12-25T09:27:38.554Z,6.54
2022-12-25T09:30:42.163Z,6.88
2022-12-25T09:33:47.752Z,7.10
2022-12-25T09:36:51.561Z,7.35
2022-12-25T09:39:56.124Z,7.60
2022-12-25T09:43:02.047Z,7.91
2022-12-25T09:46:12.680Z,8.18
2022-12-25T09:49:54.509Z,8.44
2022-12-25T09:53:08.387Z,8.76
2022-12-25T09:56:20.590Z,8.93
2022-12-25T09:59:27.757Z,9.07
2022-12-25T10:02:58.448Z,9.26
2022-12-25T10:06:26.082Z,9.47
2022-12-25T10:09:42.164Z,9.67
2022-12-25T10:13:07.352Z,9.86
2022-12-25T10:16:39.853Z,9.98
2022-12-25T10:20:17.054Z,10.20
2022-12-25T10:23:29.661Z,10.37
2022-12-25T10:26:35.553Z,10.50
2022-12-25T10:29:40.559Z,10.58
2022-12-25T10:32:45.688Z,10.62
2022-12-25T10:35:49.416Z,10.70
2022-12-25T10:38:53.542Z,10.83
2022-12-25T10:42:28.257Z,11.01
2022-12-25T10:45:31.675Z,11.03
2022-12-25T10:48:36.426Z,11.21
2022-12-25T10:51:40.711Z,11.28
2022-12-25T10:54:44.752Z,11.38
2022-12-25T10:57:48.540Z,11.28
2022-12-25T11:00:58.373Z,11.37
2022-12-25T11:04:02.979Z,11.52
2022-12-25T11:07:20.557Z,11.63
2022-12-25T11:10:32.047Z,11.68
2022-12-25T11:13:49.889Z,11.77
2022-12-25T11:16:53.122Z,11.94
2022-12-25T11:19:59.312Z,11.99
2022-12-25T11:23:03.161Z,12.10
2022-12-25T11:26:08.361Z,12.07
2022-12-25T11:29:30.549Z,12.00
2022-12-25T11:32:43.546Z,11.94
2022-12-25T11:35:53.747Z,11.93
2022-12-25T11:39:02.186Z,11.98
2022-12-25T11:42:30.323Z,12.04
2022-12-25T11:45:40.292Z,11.97
2022-12-25T11:48:57.603Z,11.97
2022-12-25T11:52:02.277Z,11.95
2022-12-25T11:55:31.127Z,12.12
2022-12-25T11:58:39.356Z,12.19
2022-12-25T12:01:53.254Z,12.22
2022-12-25T12:05:10.617Z,12.32
2022-12-25T12:08:15.457Z,12.32
2022-12-25T12:11:28.886Z,12.37
2022-12-25T12:14:47.670Z,12.30
2022-12-25T12:17:50.648Z,12.28
2022-12-25T12:21:18.944Z,12.11
2022-12-25T12:24:25.590Z,12.05
2022-12-25T12:27:37.415Z,11.87
2022-12-25T12:30:40.583Z,11.81
2022-12-25T12:33:50.141Z,11.72
2022-12-25T12:37:18.657Z,11.58
2022-12-25T12:40:35.233Z,11.52
2022-12-25T12:43:44.585Z,11.47
2022-12-25T12:46:59.053Z,11.57
2022-12-25T12:50:03.063Z,11.79
2022-12-25T12:53:18.858Z,12.22
2022-12-25T12:56:22.601Z,12.42
2022-12-25T12:59:27.362Z,12.50
2022-12-25T13:02:54.147Z,12.53
2022-12-25T13:06:06.111Z,12.57
2022-12-25T13:09:37.164Z,12.56
2022-12-25T13:12:42.507Z,12.55
2022-12-25T13:15:49.491Z,12.51
2022-12-25T13:18:56.054Z,12.42
2022-12-25T13:22:06.306Z,12.39
2022-12-25T13:25:21.056Z,12.25
2022-12-25T13:28:32.604Z,12.25
2022-12-25T13:31:35.952Z,12.25
2022-12-25T13:34:42.561Z,12.17
2022-12-25T13:37:48.312Z,12.08
2022-12-25T13:41:13.325Z,11.92
2022-12-25T13:44:26.194Z,11.84
2022-12-25T13:47:39.673Z,11.71
2022-12-25T13:50:49.322Z,11.56
2022-12-25T13:54:03.373Z,11.52
2022-12-25T13:57:13.965Z,11.39
2022-12-25T14:00:26.762Z,11.37
2022-12-25T14:03:46.767Z,11.39
2022-12-25T14:06:53.553Z,11.51
2022-12-25T14:10:06.046Z,11.51
2022-12-25T14:13:14.163Z,11.33
2022-12-25T14:16:20.447Z,11.31
2022-12-25T14:19:31.921Z,11.33
2022-12-25T14:22:36.442Z,11.24
2022-12-25T14:25:45.056Z,11.22
2022-12-25T14:29:16.867Z,11.11
2022-12-25T14:32:29.651Z,10.97
2022-12-25T14:35:34.908Z,10.75
2022-12-25T14:38:41.779Z,10.56
2022-12-25T14:41:54.865Z,10.49
2022-12-25T14:45:04.868Z,10.43
2022-12-25T14:48:25.203Z,10.37
2022-12-25T14:51:30.873Z,10.40
2022-12-25T14:54:35.072Z,10.40
2022-12-25T14:57:41.497Z,10.32
2022-12-25T15:00:46.327Z,10.24
2022-12-25T15:03:51.533Z,10.14
2022-12-25T15:07:09.921Z,10.11
2022-12-25T15:10:58.118Z,10.06
2022-12-25T15:13:39.525Z,9.94
2022-12-25T15:16:46.173Z,9.76
2022-12-25T15:19:49.839Z,9.61
2022-12-25T15:23:18.361Z,9.51
2022-12-25T15:26:16.920Z,9.39
2022-12-25T15:29:44.618Z,9.27
2022-12-25T15:32:43.925Z,9.21
2022-12-25T15:35:48.026Z,9.12
2022-12-25T15:38:52.740Z,9.04
2022-12-25T15:42:26.035Z,9.02
2022-12-25T15:45:31.794Z,9.00
2022-12-25T15:48:35.094Z,8.92
2022-12-25T15:51:39.310Z,8.90
2022-12-25T15:54:44.464Z,8.86
2022-12-25T15:57:51.743Z,8.84
2022-12-25T16:00:55.734Z,9.03
2022-12-25T16:04:00.014Z,9.02
2022-12-25T16:07:04.921Z,8.97
2022-12-25T16:10:15.097Z,8.96
2022-12-25T16:13:20.701Z,8.97
2022-12-25T16:16:27.263Z,8.98
2022-12-25T16:19:31.004Z,8.98
2022-12-25T16:22:40.346Z,9.01
2022-12-25T16:25:45.385Z,8.97
2022-12-25T16:28:49.098Z,8.94
2022-12-25T16:31:53.111Z,8.91
2022-12-25T16:34:57.923Z,8.88
2022-12-25T16:38:01.788Z,8.85
2022-12-25T16:41:07.203Z,8.82
2022-12-25T16:44:10.719Z,8.83
2022-12-25T16:47:15.502Z,8.81
2022-12-25T16:50:35.115Z,8.78
2022-12-25T16:53:45.896Z,8.75
2022-12-25T16:56:57.256Z,8.69
2022-12-25T17:00:03.288Z,8.65
2022-12-25T17:03:06.418Z,8.54
2022-12-25T17:06:18.318Z,8.47
2022-12-25T17:09:37.507Z,8.40
2022-12-25T17:12:49.536Z,8.45
2022-12-25T17:16:01.914Z,8.44
2022-12-25T17:19:24.249Z,8.44
2022-12-25T17:22:32.886Z,8.45
2022-12-25T17:25:38.491Z,8.54
2022-12-25T17:28:50.527Z,8.42
2022-12-25T17:31:53.697Z,8.34
2022-12-25T17:34:56.004Z,8.25
2022-12-25T17:38:08.207Z,8.19
2022-12-25T17:41:18.661Z,8.10
2022-12-25T17:44:22.271Z,8.14
2022-12-25T17:47:33.459Z,8.07
2022-12-25T17:50:41.228Z,8.00
2022-12-25T17:53:50.300Z,7.89
2022-12-25T17:57:01.176Z,7.75
2022-12-25T18:00:09.323Z,7.68
2022-12-25T18:03:28.870Z,7.57
2022-12-25T18:06:38.305Z,7.47
2022-12-25T18:09:44.784Z,7.39
2022-12-25T18:12:51.816Z,7.31
2022-12-25T18:15:57.115Z,7.23
2022-12-25T18:19:12.217Z,7.23
2022-12-25T18:22:20.108Z,7.16
2022-12-25T18:25:24.508Z,7.14
2022-12-25T18:28:34.806Z,7.13
2022-12-25T18:31:37.869Z,7.20
2022-12-25T18:34:43.328Z,7.14
2022-12-25T18:37:49.748Z,7.12
2022-12-25T18:40:55.687Z,7.20
2022-12-25T18:44:05.726Z,7.20
2022-12-25T18:47:08.916Z,7.16
2022-12-25T18:50:23.995Z,7.12
2022-12-25T18:53:37.742Z,7.16
2022-12-25T18:56:40.944Z,7.18
2022-12-25T18:59:47.855Z,7.15
2022-12-25T19:02:56.259Z,7.12
2022-12-25T19:06:08.148Z,7.11
2022-12-25T19:09:21.467Z,7.16
2022-12-25T19:12:24.140Z,7.23
2022-12-25T19:15:38.262Z,7.26
2022-12-25T19:18:45.581Z,7.26
2022-12-25T19:21:57.087Z,7.32
2022-12-25T19:25:02.907Z,7.34
2022-12-25T19:28:13.793Z,7.43
2022-12-25T19:31:23.301Z,7.48
2022-12-25T19:34:32.823Z,7.47
2022-12-25T19:37:42.433Z,7.43
2022-12-25T19:41:06.938Z,7.48
2022-12-25T19:44:09.636Z,7.60
2022-12-25T19:47:18.551Z,7.57
2022-12-25T19:50:24.408Z,7.52
2022-12-25T19:53:38.074Z,7.50
2022-12-25T19:56:52.599Z,7.51
2022-12-25T20:00:02.752Z,7.50
2022-12-25T20:03:07.998Z,7.56
2022-12-25T20:06:20.646Z,7.51
2022-12-25T20:09:39.197Z,7.46
2022-12-25T20:12:49.179Z,7.46
2022-12-25T20:15:53.394Z,7.45
2022-12-25T20:19:04.666Z,7.53
2022-12-25T20:22:14.620Z,7.60
2022-12-25T20:25:18.680Z,7.66
2022-12-25T20:28:25.560Z,7.73
2022-12-25T20:31:37.343Z,7.84
2022-12-25T20:34:47.471Z,7.81
2022-12-25T20:37:51.585Z,7.80
2022-12-25T20:44:38.546Z,7.81
2022-12-25T20:47:41.090Z,7.80
2022-12-25T20:50:53.120Z,7.85
2022-12-25T20:53:58.650Z,7.84
2022-12-25T20:57:06.155Z,7.81
2022-12-25T21:00:31.183Z,7.85
2022-12-25T21:03:37.154Z,7.84
2022-12-25T21:06:46.576Z,7.85
2022-12-25T21:09:50.347Z,7.93
2022-12-25T21:13:00.476Z,7.91
2022-12-25T21:16:15.323Z,7.87
2022-12-25T21:19:17.904Z,7.88
2022-12-25T21:22:25.234Z,7.84
2022-12-25T21:25:30.316Z,7.84
2022-12-25T21:28:39.289Z,7.94
2022-12-25T21:32:03.629Z,8.02
2022-12-25T21:35:14.223Z,8.03
2022-12-25T21:38:20.844Z,8.00
2022-12-25T21:41:24.911Z,7.94
2022-12-25T21:44:36.118Z,7.94
2022-12-25T21:48:01.605Z,7.94
2022-12-25T21:51:32.472Z,8.00
2022-12-25T21:54:45.607Z,7.96
2022-12-25T21:57:55.233Z,8.00
2022-12-25T22:01:05.310Z,8.00
2022-12-25T22:04:17.389Z,7.98
2022-12-25T22:07:20.127Z,8.00
2022-12-25T22:10:22.525Z,7.99
2022-12-25T22:13:48.259Z,7.96
2022-12-25T22:17:15.233Z,7.97
2022-12-25T22:20:40.590Z,8.00
2022-12-25T22:23:44.746Z,8.03
2022-12-25T22:26:57.900Z,8.06
2022-12-25T22:30:17.391Z,8.02
2022-12-25T22:33:26.763Z,8.08
2022-12-25T22:36:29.236Z,8.15
2022-12-25T22:39:40.437Z,8.13
2022-12-25T22:42:45.632Z,8.13
2022-12-25T22:45:59.581Z,8.18
2022-12-25T22:49:08.941Z,8.18
2022-12-25T22:52:25.164Z,8.21
2022-12-25T22:55:28.893Z,8.21
2022-12-25T22:58:31.858Z,8.19
2022-12-25T23:01:54.157Z,8.20
2022-12-25T23:04:59.789Z,8.19
2022-12-25T23:08:25.173Z,8.18
2022-12-25T23:11:35.198Z,8.31
2022-12-25T23:14:44.545Z,8.34
2022-12-25T23:18:10.634Z,8.32
2022-12-25T23:21:41.487Z,8.34
2022-12-25T23:25:10.859Z,8.36
2022-12-25T23:28:40.051Z,8.41
2022-12-25T23:31:44.415Z,8.34
2022-12-25T23:35:00.235Z,8.25
2022-12-25T23:38:12.548Z,8.18
2022-12-25T23:41:26.915Z,8.16
2022-12-25T23:44:35.628Z,8.20
2022-12-25T23:47:43.769Z,8.11
2022-12-25T23:50:46.463Z,7.97
2022-12-25T23:54:01.798Z,7.97
2022-12-25T23:57:07.509Z,7.96
